Whitewater Creek, Colorado (Grand Mesa) Weather observations

Data are for observation ending at time listed.
 Day   Time    Ave.   Ave.  Ave.  Vector   Max.    Total    Solar   Ave.  
  of    of     Air    Rel.  Wind   Wind    Wind   Precip.   Rad.    Soil  
Year   Day     Temp.  Hum.  Speed  Dir.    Gust                     Temp. 
2014   (MST)    F      %     mph   deg.    mph      in.     W/m2     F   
------------------------------------------------------------------------------
 274    7:30   30.5    98    2.2   328      2.2    99999.00   99999    99999.0
 274    7:40   30.2    98    2.2   337      2.2    99999.00   99999    99999.0
 274    7:50   29.8    98    2.2   310      2.2    99999.00   99999    99999.0
 274    8:00   29.2    98    2.2   342      3.5    99999.00   99999    99999.0
 274    8:10   29.0    98    2.2   143      2.2    99999.00   99999    99999.0
 274    8:20   29.0    98    2.2   144      2.2    99999.00   99999    99999.0
 274    8:30   29.3    98    2.2   150      2.2    99999.00   99999    99999.0
 274    8:40   29.4    98    2.2   196      2.2    99999.00   99999    99999.0
 274    8:50   29.9    98    2.2   232      2.2    99999.00   99999    99999.0
 274    9:00   30.2    98    2.2   232      2.2    99999.00   99999    99999.0
 274    9:10   30.4    98    2.3   271      4.8    99999.00   99999    99999.0
 274    9:20   30.4    98    2.3   302      6.1    99999.00   99999    99999.0
 274    9:30   30.6    98    2.2   330      2.2    99999.00   99999    99999.0
 274    9:40   31.2    97    2.2   340      2.2    99999.00   99999    99999.0
 274    9:50   32.0    96    2.2   337      2.2    99999.00   99999    99999.0
 274   10:00   32.7    96    2.2   333      2.2    99999.00   99999    99999.0
 274   10:10   35.1    93    2.2   330      2.2    99999.00   99999    99999.0
 274   10:20   38.0    90    2.2   330      2.2    99999.00   99999    99999.0
 274   10:30   35.9    86    2.2   293      2.2    99999.00   99999    99999.0
 274   10:40   35.3    85    2.2   310      2.2    99999.00   99999    99999.0
 274   10:50   35.1    80    2.2   285      2.2    99999.00   99999    99999.0
 274   11:00   34.7    78    2.2   272      2.2    99999.00   99999    99999.0
 274   11:10   34.0    81    2.2   278      3.5    99999.00   99999    99999.0
 274   11:20   33.7    83    2.2   260      2.2    99999.00   99999    99999.0
 274   11:30   35.4    78    2.2   257      2.2    99999.00   99999    99999.0
 274   11:40   36.1    78    2.2   266      2.2    99999.00   99999    99999.0
 274   11:50   34.1    85    2.2   238      2.2    99999.00   99999    99999.0
 274   12:00   33.9    86    2.2   269      2.2    99999.00   99999    99999.0
 274   12:10   33.8    86    2.2   280      2.2    99999.00   99999    99999.0
 274   12:20   33.8    83    2.2   264      2.2    99999.00   99999    99999.0
 274   12:30   34.6    82    2.2   279      2.2    99999.00   99999    99999.0
 274   12:40   35.3    78    2.2   267      2.2    99999.00   99999    99999.0
 274   12:50   36.1    74    2.2   270      2.2    99999.00   99999    99999.0
 274   13:00   36.0    74    2.2   250      2.2    99999.00   99999    99999.0
 274   13:10   34.5    78    2.2   259      2.2    99999.00   99999    99999.0
 274   13:20   33.7    84    2.2   240      2.2    99999.00   99999    99999.0
 274   13:30   33.9    85    2.2   236      2.2    99999.00   99999    99999.0
 274   13:40   34.0    85    2.2   247      2.2    99999.00   99999    99999.0
 274   13:50   33.9    85    2.2   243      2.2    99999.00   99999    99999.0
 274   14:00   34.5    83    2.2   240      2.2    99999.00   99999    99999.0
 274   14:10   34.1    84    2.2   250      2.2    99999.00   99999    99999.0
 274   14:20   34.4    82    2.2   251      2.2    99999.00   99999    99999.0
 274   14:30   34.0    83    2.2   252      2.2    99999.00   99999    99999.0
 274   14:40   33.8    81    2.2   267      2.2    99999.00   99999    99999.0
 274   14:50   34.0    78    2.2   275      2.2    99999.00   99999    99999.0
 274   15:00   33.5    80    2.2   272      2.2    99999.00   99999    99999.0
 274   15:10   33.8    82    2.2   264      2.2    99999.00   99999    99999.0
 274   15:20   33.0    86    2.2   258      2.2    99999.00   99999    99999.0
 274   15:30   32.9    87    2.2   238      2.2    99999.00   99999    99999.0
 274   15:40   32.9    87    2.2   238      2.2    99999.00   99999    99999.0
 274   15:50   32.2    91    2.2   266      2.2    99999.00   99999    99999.0
 274   16:00   30.9    94    4.9   272     16.3    99999.00   99999    99999.0
 274   16:10   29.6    96   13.8   272     22.7    99999.00   99999    99999.0
 274   16:20   29.3    96   12.0   251     20.2    99999.00   99999    99999.0
 274   16:30   29.5    96    7.8   256     15.0    99999.00   99999    99999.0
 274   16:40   29.8    96    4.6   263     12.5    99999.00   99999    99999.0
 274   16:50   29.8    97    6.8   267     13.8    99999.00   99999    99999.0
 274   17:00   29.9    97    4.2   269     12.5    99999.00   99999    99999.0
 274   17:10   30.2    98    3.4   281     13.8    99999.00   99999    99999.0
 274   17:20   30.1    98    6.9   278     16.3    99999.00   99999    99999.0
 274   17:30   29.6    98   11.6   276     18.9    99999.00   99999    99999.0
 274   17:40   29.4    97    2.7   269      8.6    99999.00   99999    99999.0
 274   17:50   30.0    97    2.2   268      3.5    99999.00   99999    99999.0
 274   18:00   30.1    98    2.8   278     12.5    99999.00   99999    99999.0
 274   18:10   30.1    98    2.3   286      4.8    99999.00   99999    99999.0
 274   18:20   29.3    94    2.3   286      6.1    99999.00   99999    99999.0
 274   18:30   29.4    96    2.2   322      2.2    99999.00   99999    99999.0
 274   18:40   29.0    96    2.2   330      2.2    99999.00   99999    99999.0
 274   18:50   28.5    97    2.2   341      2.2    99999.00   99999    99999.0
 274   19:00   28.2    97    2.2     9      2.2    99999.00   99999    99999.0
 274   19:10   28.0    98    2.2    25      2.2    99999.00   99999    99999.0
 274   19:20   28.3    98    2.2    29      2.2    99999.00   99999    99999.0
 274   19:30   28.1    98    2.2    27      2.2    99999.00   99999    99999.0
 274   19:40   28.0    98    2.2    21      3.5    99999.00   99999    99999.0
 274   19:50   27.7    98    2.2    34      2.2    99999.00   99999    99999.0
 274   20:00   27.7    98    2.3    29      4.8    99999.00   99999    99999.0
 274   20:10   27.0    97    2.4    22      6.1    99999.00   99999    99999.0
 274   20:20   26.4    97    2.4    24      6.1    99999.00   99999    99999.0
 274   20:30   26.3    97    2.2    15      2.2    99999.00   99999    99999.0
 274   20:40   25.9    97    2.2    24      3.5    99999.00   99999    99999.0
 274   20:50   25.8    97    2.2    26      2.2    99999.00   99999    99999.0
 274   21:00   25.9    97    2.2     5      2.2    99999.00   99999    99999.0
 274   21:10   25.8    97    2.2    26      2.2    99999.00   99999    99999.0
 274   21:20   25.7    97    2.2    41      2.2    99999.00   99999    99999.0
 274   21:30   25.5    97    2.2    48      2.2    99999.00   99999    99999.0
 274   21:40   25.5    96    2.2    46      2.2    99999.00   99999    99999.0
 274   21:50   25.5    96    2.2    42      2.2    99999.00   99999    99999.0
 274   22:00   25.7    96    2.2    37      3.5    99999.00   99999    99999.0
 274   22:10   25.8    95    2.2    23      2.2    99999.00   99999    99999.0
 274   22:20   25.8    95    2.2    27      3.5    99999.00   99999    99999.0
 274   22:30   25.7    95    2.3    25      4.8    99999.00   99999    99999.0
 274   22:40   25.7    96    2.2    26      3.5    99999.00   99999    99999.0
 274   22:50   25.8    96    2.3    25      4.8    99999.00   99999    99999.0
 274   23:00   25.9    96    3.0    24      9.9    99999.00   99999    99999.0
 274   23:10   25.9    97    2.3    18      4.8    99999.00   99999    99999.0
 274   23:20   25.8    97    2.7    22      8.6    99999.00   99999    99999.0
 274   23:30   25.7    97    4.2    18     12.5    99999.00   99999    99999.0
 274   23:40   25.5    97    2.3    22      6.1    99999.00   99999    99999.0
 274   23:50   25.4    97    2.3    26      6.1    99999.00   99999    99999.0
 275    0:00   25.5    97    2.3    21      7.4    99999.00   99999    99999.0
 275    0:10   25.2    97    7.2    26     20.2    99999.00   99999    99999.0
 275    0:20   25.3    97    2.2    27      3.5    99999.00   99999    99999.0
 275    0:30   25.1    97    2.3    30      4.8    99999.00   99999    99999.0
 275    0:40   25.0    97    4.5    37     17.6    99999.00   99999    99999.0
 275    0:50   25.1    97    2.6    26      6.1    99999.00   99999    99999.0
 275    1:00   24.6    96    5.1    30     21.4    99999.00   99999    99999.0
 275    1:10   24.7    97    2.7    29      8.6    99999.00   99999    99999.0
 275    1:20   24.4    96    2.2    25      2.2    99999.00   99999    99999.0
 275    1:30   24.3    96    3.0    31     12.5    99999.00   99999    99999.0
 275    1:40   24.3    96    2.8    29      8.6    99999.00   99999    99999.0
 275    1:50   24.3    96    2.5    25      8.6    99999.00   99999    99999.0
 275    2:00   24.3    96    2.2    32      2.2    99999.00   99999    99999.0
 275    2:10   24.3    96    2.3    27      4.8    99999.00   99999    99999.0
 275    2:20   24.3    96    2.2    16      2.2    99999.00   99999    99999.0
 275    2:30   24.1    96    2.8    15      7.4    99999.00   99999    99999.0
 275    2:40   24.1    96    2.2    18      2.2    99999.00   99999    99999.0
 275    2:50   24.0    96    2.2    16      2.2    99999.00   99999    99999.0
 275    3:00   23.8    96    3.2    20     12.5    99999.00   99999    99999.0
 275    3:10   23.8    96    2.2    18      2.2    99999.00   99999    99999.0
 275    3:20   23.7    96    2.2    16      2.2    99999.00   99999    99999.0
 275    3:30   23.9    97    2.2    16      2.2    99999.00   99999    99999.0
 275    3:40   23.7    96    2.2    17      2.2    99999.00   99999    99999.0
 275    3:50   23.6    96    2.7    18      9.9    99999.00   99999    99999.0
 275    4:00   23.5    96    2.7    18      6.1    99999.00   99999    99999.0
 275    4:10   23.3    96    2.2    20      2.2    99999.00   99999    99999.0
 275    4:20   23.2    96    2.2    14      2.2    99999.00   99999    99999.0
 275    4:30   23.0    96    2.7    16      6.1    99999.00   99999    99999.0
 275    4:40   22.9    96    2.2    29      2.2    99999.00   99999    99999.0
 275    4:50   22.5    96    2.4    36      6.1    99999.00   99999    99999.0
 275    5:00   22.5    96    2.2    32      2.2    99999.00   99999    99999.0
 275    5:10   22.2    96    2.2    32      2.2    99999.00   99999    99999.0
 275    5:20   22.0    95    2.2    39      2.2    99999.00   99999    99999.0
 275    5:30   21.8    95    2.2    41      2.2    99999.00   99999    99999.0
 275    5:40   21.7    95    2.2    44      2.2    99999.00   99999    99999.0
 275    5:50   21.6    95    2.2    42      2.2    99999.00   99999    99999.0
 275    6:00   21.4    95    2.2    42      2.2    99999.00   99999    99999.0
 275    6:10   21.4    94    2.2    40      2.2    99999.00   99999    99999.0
 275    6:20   20.9    94    2.2    40      2.2    99999.00   99999    99999.0
 275    6:30   20.6    94    2.2    35      2.2    99999.00   99999    99999.0
 275    6:40   22.4    92    2.2    29      2.2    99999.00   99999    99999.0
 275    6:50   23.4    88    2.2    30      2.2    99999.00   99999    99999.0
 275    7:00   24.7    88    2.2    25      2.2    99999.00   99999    99999.0
 275    7:10   26.0    86    2.2    27      2.2    99999.00   99999    99999.0
 275    7:20   26.6    85    2.2    44      2.2    99999.00   99999    99999.0

Return to Whitewater Creek, Colorado graphs page.


Western Regional Climate Center,wrcc@dri.edu